sensor_id;sensor_type;location;lat;lon;timestamp;pressure;altitude;pressure_sealevel;temperature;humidity
37068;BME280;22982;42.848;25.468;2023-09-18T00:03:30;96784.94;;;14.85;100.00
37068;BME280;22982;42.848;25.468;2023-09-18T00:08:32;96777.31;;;14.81;100.00
37068;BME280;22982;42.848;25.468;2023-09-18T00:13:35;96760.41;;;14.70;100.00
37068;BME280;22982;42.848;25.468;2023-09-18T00:18:38;96762.03;;;14.73;100.00
37068;BME280;22982;42.848;25.468;2023-09-18T00:23:40;96763.81;;;14.72;100.00
37068;BME280;22982;42.848;25.468;2023-09-18T00:28:43;96767.94;;;14.77;100.00
37068;BME280;22982;42.848;25.468;2023-09-18T00:33:45;96769.94;;;14.73;100.00
37068;BME280;22982;42.848;25.468;2023-09-18T00:38:47;96767.59;;;14.68;100.00
37068;BME280;22982;42.848;25.468;2023-09-18T00:43:52;96771.91;;;14.57;100.00
37068;BME280;22982;42.848;25.468;2023-09-18T00:48:54;96747.72;;;14.50;100.00
37068;BME280;22982;42.848;25.468;2023-09-18T00:53:58;96760.09;;;14.49;100.00
37068;BME280;22982;42.848;25.468;2023-09-18T00:59:01;96755.31;;;14.42;100.00
37068;BME280;22982;42.848;25.468;2023-09-18T01:04:05;96767.38;;;14.33;100.00
37068;BME280;22982;42.848;25.468;2023-09-18T01:09:08;96750.25;;;14.13;100.00
37068;BME280;22982;42.848;25.468;2023-09-18T01:14:20;96772.28;;;14.12;100.00
37068;BME280;22982;42.848;25.468;2023-09-18T01:19:38;96765.47;;;14.35;100.00
37068;BME280;22982;42.848;25.468;2023-09-18T01:24:42;96759.00;;;14.26;100.00
37068;BME280;22982;42.848;25.468;2023-09-18T01:29:46;96763.19;;;14.16;100.00
37068;BME280;22982;42.848;25.468;2023-09-18T01:34:54;96741.75;;;13.95;100.00
37068;BME280;22982;42.848;25.468;2023-09-18T01:39:57;96749.28;;;14.14;100.00
37068;BME280;22982;42.848;25.468;2023-09-18T01:45:03;96750.25;;;14.26;100.00
37068;BME280;22982;42.848;25.468;2023-09-18T01:50:07;96754.22;;;14.06;100.00
37068;BME280;22982;42.848;25.468;2023-09-18T01:55:10;96769.81;;;14.09;100.00
37068;BME280;22982;42.848;25.468;2023-09-18T02:00:13;96776.44;;;14.02;100.00
37068;BME280;22982;42.848;25.468;2023-09-18T02:05:16;96768.53;;;14.02;100.00
37068;BME280;22982;42.848;25.468;2023-09-18T02:10:19;96762.00;;;13.94;100.00
37068;BME280;22982;42.848;25.468;2023-09-18T02:15:22;96747.53;;;13.87;100.00
37068;BME280;22982;42.848;25.468;2023-09-18T02:20:24;96750.75;;;13.78;100.00
37068;BME280;22982;42.848;25.468;2023-09-18T02:25:27;96762.59;;;13.85;100.00
37068;BME280;22982;42.848;25.468;2023-09-18T02:30:29;96744.44;;;13.68;100.00
37068;BME280;22982;42.848;25.468;2023-09-18T02:35:33;96743.00;;;13.89;100.00
37068;BME280;22982;42.848;25.468;2023-09-18T02:40:35;96768.34;;;14.05;100.00
37068;BME280;22982;42.848;25.468;2023-09-18T02:45:37;96758.25;;;14.11;100.00
37068;BME280;22982;42.848;25.468;2023-09-18T02:50:40;96762.16;;;14.06;100.00
37068;BME280;22982;42.848;25.468;2023-09-18T02:56:01;96764.97;;;14.03;100.00
37068;BME280;22982;42.848;25.468;2023-09-18T03:01:04;96768.28;;;13.79;100.00
37068;BME280;22982;42.848;25.468;2023-09-18T03:06:09;96779.84;;;13.76;100.00
37068;BME280;22982;42.848;25.468;2023-09-18T03:11:12;96776.09;;;13.81;100.00
37068;BME280;22982;42.848;25.468;2023-09-18T03:16:15;96772.56;;;14.07;100.00
37068;BME280;22982;42.848;25.468;2023-09-18T03:21:19;96771.09;;;14.16;100.00
37068;BME280;22982;42.848;25.468;2023-09-18T03:26:22;96764.13;;;14.02;100.00
37068;BME280;22982;42.848;25.468;2023-09-18T03:31:25;96765.97;;;13.87;100.00
37068;BME280;22982;42.848;25.468;2023-09-18T03:36:27;96752.66;;;13.49;100.00
37068;BME280;22982;42.848;25.468;2023-09-18T03:41:31;96788.16;;;13.70;100.00
37068;BME280;22982;42.848;25.468;2023-09-18T03:46:37;96787.22;;;13.98;100.00
37068;BME280;22982;42.848;25.468;2023-09-18T03:51:41;96786.13;;;13.61;100.00
37068;BME280;22982;42.848;25.468;2023-09-18T03:56:43;96797.50;;;13.89;100.00
37068;BME280;22982;42.848;25.468;2023-09-18T04:01:48;96782.09;;;13.55;100.00
37068;BME280;22982;42.848;25.468;2023-09-18T04:06:51;96790.31;;;13.36;100.00
37068;BME280;22982;42.848;25.468;2023-09-18T04:11:54;96802.66;;;13.36;100.00
37068;BME280;22982;42.848;25.468;2023-09-18T04:16:59;96818.44;;;13.36;100.00
37068;BME280;22982;42.848;25.468;2023-09-18T04:22:02;96793.06;;;13.62;100.00
37068;BME280;22982;42.848;25.468;2023-09-18T04:27:05;96809.81;;;13.75;100.00
37068;BME280;22982;42.848;25.468;2023-09-18T04:32:08;96808.53;;;14.08;100.00
37068;BME280;22982;42.848;25.468;2023-09-18T04:37:12;96803.38;;;14.07;100.00
37068;BME280;22982;42.848;25.468;2023-09-18T04:42:15;96806.97;;;14.06;100.00
37068;BME280;22982;42.848;25.468;2023-09-18T04:47:19;96815.25;;;14.40;100.00
37068;BME280;22982;42.848;25.468;2023-09-18T04:52:22;96812.41;;;14.43;100.00
37068;BME280;22982;42.848;25.468;2023-09-18T04:57:25;96805.19;;;14.59;100.00
37068;BME280;22982;42.848;25.468;2023-09-18T05:02:28;96808.97;;;14.55;100.00
37068;BME280;22982;42.848;25.468;2023-09-18T05:07:33;96799.19;;;14.70;100.00
37068;BME280;22982;42.848;25.468;2023-09-18T05:12:35;96807.34;;;14.80;100.00
37068;BME280;22982;42.848;25.468;2023-09-18T05:17:43;96812.19;;;14.86;100.00
37068;BME280;22982;42.848;25.468;2023-09-18T05:22:46;96803.91;;;14.90;100.00
37068;BME280;22982;42.848;25.468;2023-09-18T05:27:49;96808.25;;;15.04;100.00
37068;BME280;22982;42.848;25.468;2023-09-18T05:32:58;96799.81;;;14.99;100.00
37068;BME280;22982;42.848;25.468;2023-09-18T05:38:07;96801.06;;;15.06;100.00
37068;BME280;22982;42.848;25.468;2023-09-18T05:43:10;96791.34;;;15.20;100.00
37068;BME280;22982;42.848;25.468;2023-09-18T05:48:14;96790.56;;;15.43;100.00
37068;BME280;22982;42.848;25.468;2023-09-18T05:53:16;96779.72;;;17.23;100.00
37068;BME280;22982;42.848;25.468;2023-09-18T05:58:19;96765.28;;;24.90;82.99
37068;BME280;22982;42.848;25.468;2023-09-18T06:03:27;96742.75;;;30.03;48.28
37068;BME280;22982;42.848;25.468;2023-09-18T06:08:32;96739.69;;;32.36;41.77
37068;BME280;22982;42.848;25.468;2023-09-18T06:13:36;96744.34;;;33.85;37.63
37068;BME280;22982;42.848;25.468;2023-09-18T06:18:39;96737.63;;;34.48;36.08
37068;BME280;22982;42.848;25.468;2023-09-18T06:23:42;96712.03;;;34.38;35.50
37068;BME280;22982;42.848;25.468;2023-09-18T06:28:44;96730.34;;;34.96;34.75
37068;BME280;22982;42.848;25.468;2023-09-18T06:33:47;96709.06;;;34.69;35.41
37068;BME280;22982;42.848;25.468;2023-09-18T06:38:50;96739.75;;;34.46;35.76
37068;BME280;22982;42.848;25.468;2023-09-18T06:43:53;96736.66;;;34.97;34.57
37068;BME280;22982;42.848;25.468;2023-09-18T06:48:56;96740.22;;;33.02;37.95
37068;BME280;22982;42.848;25.468;2023-09-18T06:53:59;96746.97;;;32.36;40.16
37068;BME280;22982;42.848;25.468;2023-09-18T06:59:04;96752.06;;;33.51;37.15
37068;BME280;22982;42.848;25.468;2023-09-18T07:04:07;96750.63;;;34.16;36.34
37068;BME280;22982;42.848;25.468;2023-09-18T07:09:09;96738.59;;;31.60;41.40
37068;BME280;22982;42.848;25.468;2023-09-18T07:14:14;96737.81;;;30.20;45.15
37068;BME280;22982;42.848;25.468;2023-09-18T07:19:18;96736.66;;;29.39;48.48
37068;BME280;22982;42.848;25.468;2023-09-18T07:24:21;96747.91;;;26.74;63.72
37068;BME280;22982;42.848;25.468;2023-09-18T07:29:23;96753.81;;;27.52;61.91
37068;BME280;22982;42.848;25.468;2023-09-18T07:34:30;96751.00;;;28.12;56.72
37068;BME280;22982;42.848;25.468;2023-09-18T07:39:32;96752.03;;;28.75;52.87
37068;BME280;22982;42.848;25.468;2023-09-18T07:44:35;96747.28;;;29.12;40.41
37068;BME280;22982;42.848;25.468;2023-09-18T07:49:37;96757.34;;;29.18;51.02
37068;BME280;22982;42.848;25.468;2023-09-18T07:54:39;96744.00;;;29.52;42.59
37068;BME280;22982;42.848;25.468;2023-09-18T07:59:42;96735.75;;;29.18;46.82
37068;BME280;22982;42.848;25.468;2023-09-18T08:04:46;96754.47;;;29.27;45.32
37068;BME280;22982;42.848;25.468;2023-09-18T08:09:48;96735.16;;;29.71;40.95
37068;BME280;22982;42.848;25.468;2023-09-18T08:14:51;96731.59;;;29.64;37.70
37068;BME280;22982;42.848;25.468;2023-09-18T08:19:53;96735.72;;;30.15;42.20
37068;BME280;22982;42.848;25.468;2023-09-18T08:24:56;96724.09;;;30.28;36.82
37068;BME280;22982;42.848;25.468;2023-09-18T08:29:59;96724.97;;;30.88;38.64
37068;BME280;22982;42.848;25.468;2023-09-18T08:35:02;96713.56;;;31.58;32.82
37068;BME280;22982;42.848;25.468;2023-09-18T08:40:05;96716.97;;;31.34;33.55
37068;BME280;22982;42.848;25.468;2023-09-18T08:45:26;96709.25;;;31.37;33.12
37068;BME280;22982;42.848;25.468;2023-09-18T08:50:30;96696.66;;;30.78;33.96
37068;BME280;22982;42.848;25.468;2023-09-18T08:55:33;96705.81;;;30.63;33.56
37068;BME280;22982;42.848;25.468;2023-09-18T09:00:37;96702.44;;;30.28;35.68
37068;BME280;22982;42.848;25.468;2023-09-18T09:05:40;96700.84;;;30.73;35.24
37068;BME280;22982;42.848;25.468;2023-09-18T09:10:43;96698.56;;;29.69;35.55
37068;BME280;22982;42.848;25.468;2023-09-18T09:15:47;96707.91;;;28.90;34.79
37068;BME280;22982;42.848;25.468;2023-09-18T09:20:54;96692.16;;;29.76;33.50
37068;BME280;22982;42.848;25.468;2023-09-18T09:26:22;96698.38;;;29.22;33.49
37068;BME280;22982;42.848;25.468;2023-09-18T09:31:29;96681.66;;;29.53;32.02
37068;BME280;22982;42.848;25.468;2023-09-18T09:36:33;96685.84;;;30.38;31.27
37068;BME280;22982;42.848;25.468;2023-09-18T09:41:35;96668.94;;;30.22;31.93
37068;BME280;22982;42.848;25.468;2023-09-18T09:46:45;96666.66;;;29.02;33.29
37068;BME280;22982;42.848;25.468;2023-09-18T09:51:48;96681.13;;;28.38;35.06
37068;BME280;22982;42.848;25.468;2023-09-18T09:56:50;96677.34;;;29.66;34.09
37068;BME280;22982;42.848;25.468;2023-09-18T10:01:54;96669.63;;;28.79;34.98
37068;BME280;22982;42.848;25.468;2023-09-18T10:06:58;96663.75;;;30.67;33.18
37068;BME280;22982;42.848;25.468;2023-09-18T10:12:15;96650.00;;;29.95;32.32
37068;BME280;22982;42.848;25.468;2023-09-18T10:17:22;96643.56;;;30.03;31.84
37068;BME280;22982;42.848;25.468;2023-09-18T10:22:37;96659.16;;;30.28;32.41
37068;BME280;22982;42.848;25.468;2023-09-18T10:27:40;96655.66;;;30.54;33.75
37068;BME280;22982;42.848;25.468;2023-09-18T10:32:46;96653.50;;;29.83;34.15
37068;BME280;22982;42.848;25.468;2023-09-18T10:37:51;96644.16;;;29.85;33.89
37068;BME280;22982;42.848;25.468;2023-09-18T10:42:57;96642.25;;;29.17;36.07
37068;BME280;22982;42.848;25.468;2023-09-18T10:48:00;96645.41;;;28.30;36.64
37068;BME280;22982;42.848;25.468;2023-09-18T10:53:04;96643.44;;;27.95;38.20
37068;BME280;22982;42.848;25.468;2023-09-18T10:58:06;96646.28;;;28.37;36.16
37068;BME280;22982;42.848;25.468;2023-09-18T11:03:21;96625.56;;;28.16;37.73
37068;BME280;22982;42.848;25.468;2023-09-18T11:13:34;96650.00;;;27.20;40.24
37068;BME280;22982;42.848;25.468;2023-09-18T11:18:37;96636.38;;;26.91;39.27
37068;BME280;22982;42.848;25.468;2023-09-18T11:23:39;96634.63;;;26.84;41.03
37068;BME280;22982;42.848;25.468;2023-09-18T11:28:47;96628.38;;;26.01;41.43
37068;BME280;22982;42.848;25.468;2023-09-18T11:33:52;96631.34;;;26.59;40.00
37068;BME280;22982;42.848;25.468;2023-09-18T11:38:57;96629.59;;;26.51;40.27
37068;BME280;22982;42.848;25.468;2023-09-18T11:49:20;96626.31;;;25.56;41.08
37068;BME280;22982;42.848;25.468;2023-09-18T11:54:31;96622.31;;;25.21;41.86
37068;BME280;22982;42.848;25.468;2023-09-18T11:59:41;96606.25;;;25.67;40.98
37068;BME280;22982;42.848;25.468;2023-09-18T12:04:47;96614.38;;;26.05;41.30
37068;BME280;22982;42.848;25.468;2023-09-18T12:09:50;96599.59;;;26.09;40.32
37068;BME280;22982;42.848;25.468;2023-09-18T12:14:53;96590.63;;;25.94;40.11
37068;BME280;22982;42.848;25.468;2023-09-18T12:19:56;96581.91;;;25.69;40.87
37068;BME280;22982;42.848;25.468;2023-09-18T12:25:12;96596.91;;;25.86;41.40
37068;BME280;22982;42.848;25.468;2023-09-18T12:30:18;96599.38;;;25.73;40.98
37068;BME280;22982;42.848;25.468;2023-09-18T12:35:23;96588.63;;;25.73;40.25
37068;BME280;22982;42.848;25.468;2023-09-18T12:40:31;96590.09;;;25.98;40.72
37068;BME280;22982;42.848;25.468;2023-09-18T12:45:35;96580.03;;;25.92;41.69
37068;BME280;22982;42.848;25.468;2023-09-18T12:50:38;96579.44;;;26.05;42.29
37068;BME280;22982;42.848;25.468;2023-09-18T12:55:41;96587.34;;;26.07;41.44
37068;BME280;22982;42.848;25.468;2023-09-18T13:00:49;96573.81;;;25.54;42.08
37068;BME280;22982;42.848;25.468;2023-09-18T13:05:52;96565.75;;;24.99;43.50
37068;BME280;22982;42.848;25.468;2023-09-18T13:11:01;96576.66;;;25.29;42.05
37068;BME280;22982;42.848;25.468;2023-09-18T13:16:06;96565.81;;;25.46;42.37
37068;BME280;22982;42.848;25.468;2023-09-18T13:21:12;96577.13;;;25.33;42.29
37068;BME280;22982;42.848;25.468;2023-09-18T13:26:15;96561.78;;;24.87;43.16
37068;BME280;22982;42.848;25.468;2023-09-18T13:31:18;96568.34;;;24.84;43.74
37068;BME280;22982;42.848;25.468;2023-09-18T13:36:21;96561.38;;;24.98;43.72
37068;BME280;22982;42.848;25.468;2023-09-18T13:41:25;96541.78;;;24.58;45.49
37068;BME280;22982;42.848;25.468;2023-09-18T13:46:29;96554.38;;;24.89;44.36
37068;BME280;22982;42.848;25.468;2023-09-18T13:51:32;96554.03;;;24.53;44.92
37068;BME280;22982;42.848;25.468;2023-09-18T13:56:35;96542.31;;;24.45;45.36
37068;BME280;22982;42.848;25.468;2023-09-18T14:01:38;96552.31;;;24.52;45.74
37068;BME280;22982;42.848;25.468;2023-09-18T14:06:40;96556.22;;;24.57;45.88
37068;BME280;22982;42.848;25.468;2023-09-18T14:11:42;96565.94;;;24.42;44.91
37068;BME280;22982;42.848;25.468;2023-09-18T14:16:46;96544.38;;;24.27;45.17
37068;BME280;22982;42.848;25.468;2023-09-18T14:21:48;96550.91;;;24.24;45.86
37068;BME280;22982;42.848;25.468;2023-09-18T14:26:52;96548.53;;;24.30;44.96
37068;BME280;22982;42.848;25.468;2023-09-18T14:31:55;96541.81;;;24.42;45.09
37068;BME280;22982;42.848;25.468;2023-09-18T14:36:58;96538.50;;;24.32;46.23
37068;BME280;22982;42.848;25.468;2023-09-18T14:42:01;96529.81;;;24.21;46.30
37068;BME280;22982;42.848;25.468;2023-09-18T14:47:04;96536.50;;;24.25;48.37
37068;BME280;22982;42.848;25.468;2023-09-18T14:52:07;96543.59;;;24.02;48.90
37068;BME280;22982;42.848;25.468;2023-09-18T14:57:09;96532.22;;;23.67;55.02
37068;BME280;22982;42.848;25.468;2023-09-18T15:02:12;96533.56;;;23.71;51.01
37068;BME280;22982;42.848;25.468;2023-09-18T15:07:16;96539.91;;;23.78;50.53
37068;BME280;22982;42.848;25.468;2023-09-18T15:12:20;96546.09;;;23.54;60.31
37068;BME280;22982;42.848;25.468;2023-09-18T15:17:22;96548.94;;;23.28;65.17
37068;BME280;22982;42.848;25.468;2023-09-18T15:22:28;96551.50;;;22.95;62.54
37068;BME280;22982;42.848;25.468;2023-09-18T15:27:30;96546.44;;;22.75;72.41
37068;BME280;22982;42.848;25.468;2023-09-18T15:32:53;96529.72;;;22.31;76.01
37068;BME280;22982;42.848;25.468;2023-09-18T15:37:56;96526.03;;;22.06;85.66
37068;BME280;22982;42.848;25.468;2023-09-18T15:42:59;96539.25;;;21.81;90.84
37068;BME280;22982;42.848;25.468;2023-09-18T15:48:02;96534.00;;;21.35;97.46
37068;BME280;22982;42.848;25.468;2023-09-18T15:53:06;96538.84;;;20.86;100.00
37068;BME280;22982;42.848;25.468;2023-09-18T15:58:08;96540.13;;;20.64;100.00
37068;BME280;22982;42.848;25.468;2023-09-18T16:03:12;96538.69;;;20.32;100.00
37068;BME280;22982;42.848;25.468;2023-09-18T16:08:14;96555.25;;;19.79;100.00
37068;BME280;22982;42.848;25.468;2023-09-18T16:13:17;96562.78;;;19.15;100.00
37068;BME280;22982;42.848;25.468;2023-09-18T16:18:20;96569.66;;;19.08;100.00
37068;BME280;22982;42.848;25.468;2023-09-18T16:23:23;96562.88;;;18.84;100.00
37068;BME280;22982;42.848;25.468;2023-09-18T16:28:26;96554.81;;;18.45;100.00
37068;BME280;22982;42.848;25.468;2023-09-18T16:33:28;96574.00;;;18.28;100.00
37068;BME280;22982;42.848;25.468;2023-09-18T16:38:31;96571.75;;;17.81;100.00
37068;BME280;22982;42.848;25.468;2023-09-18T16:43:33;96575.69;;;17.45;100.00
37068;BME280;22982;42.848;25.468;2023-09-18T16:48:37;96555.84;;;17.07;100.00
37068;BME280;22982;42.848;25.468;2023-09-18T16:53:39;96574.66;;;17.03;100.00
37068;BME280;22982;42.848;25.468;2023-09-18T16:58:42;96597.81;;;16.90;100.00
37068;BME280;22982;42.848;25.468;2023-09-18T17:03:48;96594.09;;;16.70;100.00
37068;BME280;22982;42.848;25.468;2023-09-18T17:08:51;96605.28;;;16.62;100.00
37068;BME280;22982;42.848;25.468;2023-09-18T17:13:54;96609.38;;;16.55;100.00
37068;BME280;22982;42.848;25.468;2023-09-18T17:18:56;96605.53;;;16.37;100.00
37068;BME280;22982;42.848;25.468;2023-09-18T17:24:00;96606.25;;;16.27;100.00
37068;BME280;22982;42.848;25.468;2023-09-18T17:29:02;96632.19;;;16.00;100.00
37068;BME280;22982;42.848;25.468;2023-09-18T17:34:05;96628.09;;;15.96;100.00
37068;BME280;22982;42.848;25.468;2023-09-18T17:39:08;96634.72;;;15.90;100.00
37068;BME280;22982;42.848;25.468;2023-09-18T17:44:12;96632.31;;;15.63;100.00
37068;BME280;22982;42.848;25.468;2023-09-18T17:49:15;96627.97;;;15.62;100.00
37068;BME280;22982;42.848;25.468;2023-09-18T17:54:17;96654.13;;;15.54;100.00
37068;BME280;22982;42.848;25.468;2023-09-18T17:59:20;96637.97;;;15.34;100.00
37068;BME280;22982;42.848;25.468;2023-09-18T18:04:22;96655.19;;;15.03;100.00
37068;BME280;22982;42.848;25.468;2023-09-18T18:09:26;96646.53;;;15.01;100.00
37068;BME280;22982;42.848;25.468;2023-09-18T18:14:28;96646.75;;;14.98;100.00
37068;BME280;22982;42.848;25.468;2023-09-18T18:19:32;96649.06;;;15.02;100.00
37068;BME280;22982;42.848;25.468;2023-09-18T18:24:34;96655.59;;;15.09;100.00
37068;BME280;22982;42.848;25.468;2023-09-18T18:29:37;96656.84;;;15.17;100.00
37068;BME280;22982;42.848;25.468;2023-09-18T18:34:40;96666.47;;;15.18;100.00
37068;BME280;22982;42.848;25.468;2023-09-18T18:39:43;96649.16;;;15.01;100.00
37068;BME280;22982;42.848;25.468;2023-09-18T18:44:46;96658.38;;;14.95;100.00
37068;BME280;22982;42.848;25.468;2023-09-18T18:49:50;96648.69;;;14.83;100.00
37068;BME280;22982;42.848;25.468;2023-09-18T18:54:52;96656.22;;;14.76;100.00
37068;BME280;22982;42.848;25.468;2023-09-18T18:59:56;96671.75;;;14.55;100.00
37068;BME280;22982;42.848;25.468;2023-09-18T19:04:58;96672.19;;;14.62;100.00
37068;BME280;22982;42.848;25.468;2023-09-18T19:10:02;96679.13;;;14.50;100.00
37068;BME280;22982;42.848;25.468;2023-09-18T19:15:04;96684.19;;;14.53;100.00
37068;BME280;22982;42.848;25.468;2023-09-18T19:20:08;96687.78;;;14.39;100.00
37068;BME280;22982;42.848;25.468;2023-09-18T19:25:12;96679.03;;;14.39;100.00
37068;BME280;22982;42.848;25.468;2023-09-18T19:30:16;96672.78;;;14.40;100.00
37068;BME280;22982;42.848;25.468;2023-09-18T19:35:18;96673.44;;;14.30;100.00
37068;BME280;22982;42.848;25.468;2023-09-18T19:40:21;96692.53;;;14.34;100.00
37068;BME280;22982;42.848;25.468;2023-09-18T19:45:23;96686.72;;;14.03;100.00
37068;BME280;22982;42.848;25.468;2023-09-18T19:50:27;96691.22;;;13.88;100.00
37068;BME280;22982;42.848;25.468;2023-09-18T19:55:32;96681.84;;;13.84;100.00
37068;BME280;22982;42.848;25.468;2023-09-18T20:00:34;96683.75;;;13.95;100.00
37068;BME280;22982;42.848;25.468;2023-09-18T20:05:38;96692.38;;;13.84;100.00
37068;BME280;22982;42.848;25.468;2023-09-18T20:10:41;96672.50;;;13.66;100.00
37068;BME280;22982;42.848;25.468;2023-09-18T20:15:44;96681.88;;;13.30;100.00
37068;BME280;22982;42.848;25.468;2023-09-18T20:20:47;96682.53;;;13.33;100.00
37068;BME280;22982;42.848;25.468;2023-09-18T20:25:49;96682.03;;;13.41;100.00
37068;BME280;22982;42.848;25.468;2023-09-18T20:30:53;96682.78;;;13.43;100.00
37068;BME280;22982;42.848;25.468;2023-09-18T20:36:01;96680.75;;;13.34;100.00
37068;BME280;22982;42.848;25.468;2023-09-18T20:41:04;96679.72;;;13.22;100.00
37068;BME280;22982;42.848;25.468;2023-09-18T20:46:07;96682.09;;;13.12;100.00
37068;BME280;22982;42.848;25.468;2023-09-18T20:51:11;96680.13;;;13.16;100.00
37068;BME280;22982;42.848;25.468;2023-09-18T20:56:13;96667.22;;;13.11;100.00
37068;BME280;22982;42.848;25.468;2023-09-18T21:01:17;96677.81;;;13.24;100.00
37068;BME280;22982;42.848;25.468;2023-09-18T21:06:19;96673.41;;;12.97;100.00
37068;BME280;22982;42.848;25.468;2023-09-18T21:11:22;96677.56;;;13.14;100.00
37068;BME280;22982;42.848;25.468;2023-09-18T21:16:24;96668.88;;;12.99;100.00
37068;BME280;22982;42.848;25.468;2023-09-18T21:21:28;96674.38;;;13.09;100.00
37068;BME280;22982;42.848;25.468;2023-09-18T21:26:30;96654.66;;;13.02;100.00
37068;BME280;22982;42.848;25.468;2023-09-18T21:31:33;96668.22;;;12.96;100.00
37068;BME280;22982;42.848;25.468;2023-09-18T21:36:37;96668.97;;;12.98;100.00
37068;BME280;22982;42.848;25.468;2023-09-18T21:41:40;96663.38;;;12.61;100.00
37068;BME280;22982;42.848;25.468;2023-09-18T21:46:43;96673.53;;;12.67;100.00
37068;BME280;22982;42.848;25.468;2023-09-18T21:51:45;96669.88;;;12.55;100.00
37068;BME280;22982;42.848;25.468;2023-09-18T21:56:48;96674.75;;;12.61;100.00
37068;BME280;22982;42.848;25.468;2023-09-18T22:01:50;96675.41;;;12.65;100.00
37068;BME280;22982;42.848;25.468;2023-09-18T22:06:56;96668.09;;;12.56;100.00
37068;BME280;22982;42.848;25.468;2023-09-18T22:11:58;96674.09;;;12.29;100.00
37068;BME280;22982;42.848;25.468;2023-09-18T22:17:04;96677.41;;;12.33;100.00
37068;BME280;22982;42.848;25.468;2023-09-18T22:22:10;96675.31;;;12.23;100.00
37068;BME280;22982;42.848;25.468;2023-09-18T22:27:12;96684.91;;;11.80;100.00
37068;BME280;22982;42.848;25.468;2023-09-18T22:32:19;96687.69;;;11.77;100.00
37068;BME280;22982;42.848;25.468;2023-09-18T22:37:25;96673.09;;;11.87;100.00
37068;BME280;22982;42.848;25.468;2023-09-18T22:59:21;96677.25;;;11.91;100.00
37068;BME280;22982;42.848;25.468;2023-09-18T23:04:23;96676.69;;;12.00;100.00
37068;BME280;22982;42.848;25.468;2023-09-18T23:09:31;96667.31;;;11.96;100.00
37068;BME280;22982;42.848;25.468;2023-09-18T23:14:34;96674.81;;;11.42;100.00
37068;BME280;22982;42.848;25.468;2023-09-18T23:19:36;96675.38;;;10.85;100.00
37068;BME280;22982;42.848;25.468;2023-09-18T23:24:41;96685.94;;;10.83;100.00
37068;BME280;22982;42.848;25.468;2023-09-18T23:29:48;96680.63;;;11.01;100.00
37068;BME280;22982;42.848;25.468;2023-09-18T23:34:50;96671.88;;;11.00;100.00
37068;BME280;22982;42.848;25.468;2023-09-18T23:40:01;96670.28;;;11.29;100.00
37068;BME280;22982;42.848;25.468;2023-09-18T23:45:08;96661.81;;;11.24;100.00
37068;BME280;22982;42.848;25.468;2023-09-18T23:50:16;96669.38;;;11.45;100.00
37068;BME280;22982;42.848;25.468;2023-09-18T23:55:18;96666.00;;;11.43;100.00
